Andover, Massachusetts
Current Conditions -  °F | °C
As of 3:54 AM on Saturday 25 Oct 2014 (Local Time) from KLWM Reporting Station
Overcast Overcast  
Wind Chill: 45°   Ceiling: 7000
Heat Index: 47°   Visibility: 10mi
Dew Point: 42°   Wind: 5mph
Humidity: 83%   Direction: 240°WSW
Pressure: 29.76"   Gusts: NA
Location:  42.65°N, 71.14°W
Report Text: KLWM 250754Z AUTO 24004KT 10SM OVC070 08/06 A2976 RMK AO2 SLP077 T00830056
Loading
Personal Weather Stations






























Interactive Weather Map
Tropical Storm Tracking
New forecast layout! Learn more

10-Day Weather Forecast

Advertisements
Track Severe Weather on mobile